Time;durP1;ratioP1;P1;durP2;ratioP2;P2;SDS_P1;SDS_P2;PMS_P1;PMS_P2;Temp;Humidity;BMP_temperature;BMP_pressure;BME280_temperature;BME280_humidity;BME280_pressure;Samples;Min_cycle;Max_cycle;Signal;HPM_P1;HPM_P2
2023/09/26 00:02:17;;;;;;;11.07;5.88;;;;;;;16.58;77.96;102073.97;5116828;28;20380;-61
2023/09/26 00:04:43;;;;;;;9.07;5.88;;;;;;;16.58;77.71;102073.09;5116627;28;20020;-61
2023/09/26 00:07:08;;;;;;;9.80;5.75;;;;;;;16.56;77.79;102072.16;5116407;28;20059;-62
2023/09/26 00:09:35;;;;;;;11.30;5.97;;;;;;;16.55;77.68;102070.41;5116616;28;20035;-61
2023/09/26 00:12:00;;;;;;;8.20;5.70;;;;;;;16.52;77.65;102064.13;5115606;28;20034;-61
2023/09/26 00:14:27;;;;;;;7.95;5.40;;;;;;;16.47;77.56;102065.00;5116403;28;20110;-61
2023/09/26 00:16:53;;;;;;;7.97;5.43;;;;;;;16.42;77.71;102074.75;5116363;28;20507;-61
2023/09/26 00:19:18;;;;;;;8.60;5.80;;;;;;;16.35;78.08;102073.81;5116282;28;20028;-61
2023/09/26 00:21:43;;;;;;;10.95;6.10;;;;;;;16.27;77.87;102076.47;5116181;28;20020;-61
2023/09/26 00:24:09;;;;;;;10.90;5.97;;;;;;;16.22;78.16;102082.63;5116304;28;20103;-62
2023/09/26 00:26:35;;;;;;;8.05;5.80;;;;;;;16.29;77.88;102068.47;5116297;28;20055;-61
2023/09/26 00:29:00;;;;;;;9.35;5.93;;;;;;;16.26;77.12;102076.44;5116208;28;20030;-60
2023/09/26 00:31:25;;;;;;;11.15;5.75;;;;;;;16.23;77.14;102077.31;5115703;28;20052;-62
2023/09/26 00:33:51;;;;;;;8.52;5.22;;;;;;;16.19;77.42;102080.84;5116145;28;20039;-63
2023/09/26 00:36:17;;;;;;;11.18;5.55;;;;;;;16.21;77.85;102076.41;5115972;28;20482;-61
2023/09/26 00:38:42;;;;;;;10.38;5.20;;;;;;;16.17;78.05;102071.03;5116168;28;20028;-62
2023/09/26 00:41:07;;;;;;;7.30;5.20;;;;;;;16.20;77.53;102077.28;5116204;28;20024;-60
2023/09/26 00:43:35;;;;;;;9.90;6.18;;;;;;;16.24;78.04;102075.53;5115940;28;20520;-60
2023/09/26 00:46:00;;;;;;;10.35;5.72;;;;;;;16.27;77.95;102078.22;5115863;27;20119;-60
2023/09/26 00:48:27;;;;;;;10.18;6.03;;;;;;;16.28;77.63;102072.91;5115915;28;20059;-60
2023/09/26 00:50:53;;;;;;;11.45;6.30;;;;;;;16.31;77.37;102076.47;5115771;28;20018;-60
2023/09/26 00:53:20;;;;;;;10.90;6.47;;;;;;;16.31;77.11;102068.47;5116114;28;20042;-60
2023/09/26 00:55:46;;;;;;;8.27;5.60;;;;;;;16.29;76.18;102071.13;5115740;28;20043;-61
2023/09/26 00:58:13;;;;;;;10.07;5.65;;;;;;;16.19;76.36;102069.28;5115840;28;20035;-61
2023/09/26 01:00:40;;;;;;;12.18;5.63;;;;;;;16.05;77.16;102065.59;5114178;28;20388;-61
2023/09/26 01:03:07;;;;;;;9.30;5.80;;;;;;;16.02;77.45;102064.72;5115828;28;20126;-61
2023/09/26 01:05:35;;;;;;;9.13;5.28;;;;;;;16.01;77.30;102062.00;5115343;28;20480;-61
2023/09/26 01:08:00;;;;;;;12.52;6.20;;;;;;;16.05;77.79;102061.16;5115470;28;20035;-60
2023/09/26 01:10:25;;;;;;;11.32;6.20;;;;;;;16.09;77.69;102060.31;5115316;28;20036;-61
2023/09/26 01:12:51;;;;;;;12.07;6.35;;;;;;;16.15;77.60;102054.16;5115235;28;20380;-62
2023/09/26 01:15:36;;;;;;;13.57;6.90;;;;;;;16.16;77.25;102059.47;5115291;28;20027;-59
2023/09/26 01:18:13;;;;;;;10.63;6.40;;;;;;;16.17;76.73;102060.38;5115502;28;20031;-60
2023/09/26 01:20:44;;;;;;;12.05;6.05;;;;;;;16.09;76.49;102052.31;5115174;27;20031;-60
2023/09/26 01:23:15;;;;;;;10.00;6.75;;;;;;;16.09;76.91;102052.31;5115267;28;20106;-61
2023/09/26 01:25:42;;;;;;;12.27;6.90;;;;;;;16.06;77.03;102064.72;5115090;28;20484;-60
2023/09/26 01:28:16;;;;;;;9.48;6.82;;;;;;;15.93;77.43;102061.06;5115022;28;20437;-61
2023/09/26 01:30:42;;;;;;;13.10;6.40;;;;;;;15.87;77.48;102067.25;5115012;28;20028;-60
2023/09/26 01:33:08;;;;;;;10.68;6.60;;;;;;;15.86;77.35;102065.47;5114986;28;20121;-61
2023/09/26 01:35:34;;;;;;;10.25;6.72;;;;;;;15.81;77.95;102063.66;5113528;28;20380;-61
2023/09/26 01:38:00;;;;;;;10.55;6.13;;;;;;;15.81;77.76;102055.66;5114356;28;20031;-61
2023/09/26 01:40:25;;;;;;;10.93;6.70;;;;;;;15.78;78.57;102064.50;5114761;28;20019;-60
2023/09/26 01:42:51;;;;;;;11.38;5.60;;;;;;;15.83;77.90;102060.09;5113438;28;20353;-60
2023/09/26 01:45:17;;;;;;;10.70;5.28;;;;;;;15.83;77.91;102057.44;5114791;28;20028;-60
2023/09/26 01:47:46;;;;;;;11.70;6.20;;;;;;;15.81;78.21;102072.53;5114585;28;20028;-60
2023/09/26 01:50:13;;;;;;;9.63;6.82;;;;;;;15.87;77.94;102072.56;5114892;28;20059;-60
2023/09/26 01:52:38;;;;;;;9.15;6.20;;;;;;;15.87;78.09;102061.91;5114674;27;20083;-60
2023/09/26 01:55:11;;;;;;;10.77;5.90;;;;;;;15.84;77.98;102058.31;5114324;28;20444;-62
2023/09/26 01:57:36;;;;;;;11.23;6.15;;;;;;;15.79;77.84;102060.94;5114723;28;20038;-62
2023/09/26 02:00:13;;;;;;;10.05;5.70;;;;;;;15.73;78.27;102056.47;5114255;28;20447;-61
2023/09/26 02:02:50;;;;;;;14.05;5.85;;;;;;;15.66;78.56;102057.28;5114249;28;20108;-61
2023/09/26 02:05:20;;;;;;;12.75;6.20;;;;;;;15.62;78.78;102049.22;5114647;28;20035;-60
2023/09/26 02:07:46;;;;;;;7.95;6.00;;;;;;;15.51;78.49;102054.47;5114482;28;20038;-61
2023/09/26 02:10:13;;;;;;;9.65;6.50;;;;;;;15.45;79.11;102052.59;5113704;28;20054;-61
2023/09/26 02:12:45;;;;;;;10.05;6.75;;;;;;;15.44;79.67;102049.94;5114217;28;20020;-61
2023/09/26 02:15:12;;;;;;;;;;;;;;;15.56;77.74;102047.41;5114534;28;20023;-60
2023/09/26 02:17:38;;;;;;;11.73;6.70;;;;;;;15.48;79.21;102046.44;5113971;28;19976;-60
2023/09/26 02:20:12;;;;;;;8.50;6.43;;;;;;;15.47;79.30;102040.22;5113882;28;20031;-59
2023/09/26 02:22:42;;;;;;;15.35;6.55;;;;;;;15.46;79.16;102048.16;5113806;28;20039;-61
2023/09/26 02:25:08;;;;;;;11.35;6.00;;;;;;;15.41;79.51;102042.78;5113744;28;20449;-59
2023/09/26 02:27:34;;;;;;;9.32;6.13;;;;;;;15.38;79.48;102031.25;5114067;28;20028;-59
2023/09/26 02:29:59;;;;;;;8.85;6.00;;;;;;;15.35;79.74;102032.09;5113723;28;20496;-61
2023/09/26 02:32:25;;;;;;;8.63;6.25;;;;;;;15.33;79.78;102032.94;5113346;28;20073;-59
2023/09/26 02:34:50;;;;;;;10.05;6.28;;;;;;;15.30;79.87;102039.16;5114020;28;20095;-60
2023/09/26 02:37:16;;;;;;;9.82;6.63;;;;;;;15.30;80.00;102039.16;5113488;28;20081;-61
2023/09/26 02:39:41;;;;;;;9.48;6.85;;;;;;;15.28;80.07;102044.44;5113792;28;20035;-61
2023/09/26 02:42:06;;;;;;;10.60;6.90;;;;;;;15.26;80.35;102046.22;5113906;28;20481;-61
2023/09/26 02:44:32;;;;;;;7.95;6.75;;;;;;;15.26;79.86;102040.88;5113538;28;20024;-61
2023/09/26 02:46:57;;;;;;;9.38;6.75;;;;;;;15.27;79.77;102037.34;5113550;28;20058;-61
2023/09/26 02:49:23;;;;;;;10.77;7.10;;;;;;;15.24;79.64;102031.06;5113054;28;20023;-59
2023/09/26 02:51:48;;;;;;;9.07;6.63;;;;;;;15.27;80.00;102028.44;5113764;28;20028;-59
2023/09/26 02:54:13;;;;;;;8.68;6.38;;;;;;;15.24;80.00;102026.63;5113582;28;20034;-60
2023/09/26 02:56:39;;;;;;;9.18;6.00;;;;;;;15.23;79.95;102019.53;5113463;28;20077;-60
2023/09/26 02:59:04;;;;;;;15.80;6.15;;;;;;;15.14;80.05;102013.22;5111956;28;20385;-61
2023/09/26 03:01:29;;;;;;;11.65;6.30;;;;;;;15.13;79.81;102008.78;5113267;28;20057;-61
2023/09/26 03:03:55;;;;;;;16.73;6.65;;;;;;;15.20;80.53;102013.28;5112442;28;20039;-59
2023/09/26 03:06:20;;;;;;;15.20;6.20;;;;;;;15.19;81.01;102007.06;5113510;28;20028;-62
2023/09/26 03:08:46;;;;;;;15.55;6.70;;;;;;;15.20;80.89;102006.22;5113444;28;20556;-61
2023/09/26 03:11:11;;;;;;;15.32;6.40;;;;;;;15.14;80.28;101999.91;5113403;28;20073;-60
2023/09/26 03:13:37;;;;;;;12.48;5.95;;;;;;;15.13;80.36;101990.16;5113448;28;20110;-60
2023/09/26 03:16:04;;;;;;;9.55;5.90;;;;;;;15.15;80.54;102004.34;5113630;28;20020;-60
2023/09/26 03:18:29;;;;;;;9.35;5.70;;;;;;;15.12;80.55;102001.69;5113179;28;20081;-61
2023/09/26 03:20:56;;;;;;;10.25;6.60;;;;;;;15.03;80.64;102000.72;5113310;28;20019;-60
2023/09/26 03:23:22;;;;;;;10.45;6.93;;;;;;;14.97;81.21;101999.72;5113661;28;20033;-60
2023/09/26 03:25:47;;;;;;;8.30;6.45;;;;;;;14.88;81.35;101996.97;5113263;28;20111;-59
2023/09/26 03:28:13;;;;;;;9.30;6.85;;;;;;;14.83;81.71;102002.25;5113437;28;20032;-60
2023/09/26 03:30:43;;;;;;;7.35;6.10;;;;;;;14.79;81.60;101989.78;5112835;28;20028;-59
2023/09/26 03:33:10;;;;;;;9.25;6.47;;;;;;;14.76;81.40;101987.06;5113186;28;20035;-59
2023/09/26 03:35:35;;;;;;;11.35;6.93;;;;;;;14.73;81.97;101985.28;5113161;28;20030;-61
2023/09/26 03:38:00;;;;;;;10.45;6.97;;;;;;;14.72;82.19;101994.13;5113036;28;20103;-61
2023/09/26 03:40:26;;;;;;;9.82;6.20;;;;;;;14.72;81.88;102003.88;5113176;28;20480;-60
2023/09/26 03:42:52;;;;;;;12.25;6.30;;;;;;;14.66;81.73;101995.81;5111934;28;20072;-60
2023/09/26 03:45:18;;;;;;;9.82;6.15;;;;;;;14.64;81.74;101990.47;5113198;28;20027;-60
2023/09/26 03:47:43;;;;;;;10.30;6.40;;;;;;;14.59;81.78;101993.94;5113075;28;20044;-60
2023/09/26 03:50:09;;;;;;;11.27;6.50;;;;;;;14.62;82.40;101999.31;5113310;28;20027;-60
2023/09/26 03:52:34;;;;;;;10.50;6.80;;;;;;;14.61;82.40;101993.13;5112778;28;20546;-61
2023/09/26 03:54:59;;;;;;;11.15;7.00;;;;;;;14.64;82.09;101995.78;5112939;28;20036;-61
2023/09/26 03:57:25;;;;;;;10.52;6.40;;;;;;;14.69;81.93;101999.44;5111970;28;20020;-61
2023/09/26 03:59:50;;;;;;;9.15;6.70;;;;;;;14.79;81.99;101992.44;5113207;28;20114;-60
2023/09/26 04:02:16;;;;;;;13.48;7.55;;;;;;;14.83;82.00;101993.38;5116549;28;20019;-62
2023/09/26 04:04:41;;;;;;;10.15;7.20;;;;;;;14.86;81.71;101986.31;5116724;28;20068;-61
2023/09/26 04:07:07;;;;;;;12.73;7.57;;;;;;;14.87;81.40;101989.88;5116515;28;20464;-61
2023/09/26 04:09:33;;;;;;;10.63;7.03;;;;;;;14.81;80.81;101985.34;5116472;28;20038;-60
2023/09/26 04:11:58;;;;;;;12.95;7.55;;;;;;;14.71;81.80;101984.34;5116540;27;20030;-60
2023/09/26 04:14:25;;;;;;;14.18;7.63;;;;;;;14.69;81.91;101985.22;5115360;28;20035;-59
2023/09/26 04:16:50;;;;;;;11.98;7.22;;;;;;;14.62;81.69;101996.66;5116376;28;20396;-60
2023/09/26 04:19:17;;;;;;;11.07;7.20;;;;;;;14.59;82.02;101993.94;5116302;28;20031;-61
2023/09/26 04:21:42;;;;;;;10.60;6.50;;;;;;;14.59;81.51;101992.19;5116265;28;20077;-60
2023/09/26 04:24:08;;;;;;;15.43;7.32;;;;;;;14.64;81.46;101981.59;5116375;28;20491;-61
2023/09/26 04:26:33;;;;;;;11.35;6.97;;;;;;;14.61;81.13;101994.88;5116536;28;20028;-61
2023/09/26 04:28:59;;;;;;;9.10;7.22;;;;;;;14.62;81.86;101991.34;5116168;28;20114;-61
2023/09/26 04:31:24;;;;;;;8.35;6.53;;;;;;;14.60;81.38;101979.78;5115743;28;20066;-60
2023/09/26 04:33:50;;;;;;;11.75;7.00;;;;;;;14.58;81.15;101968.25;5116010;28;20028;-61
2023/09/26 04:36:16;;;;;;;13.15;6.40;;;;;;;14.44;81.47;101968.03;5115968;28;20020;-62
2023/09/26 04:38:42;;;;;;;9.80;6.53;;;;;;;14.38;82.53;101968.81;5116169;28;20024;-60
2023/09/26 04:41:08;;;;;;;17.60;6.70;;;;;;;14.33;83.03;101965.22;5115908;28;20375;-60
2023/09/26 04:43:33;;;;;;;18.25;6.60;;;;;;;14.31;83.03;101971.41;5116216;28;20028;-61
2023/09/26 04:46:00;;;;;;;12.15;6.85;;;;;;;14.32;82.87;101963.44;5115897;28;20089;-60
2023/09/26 04:48:26;;;;;;;13.27;6.32;;;;;;;14.38;82.33;101963.50;5115811;28;20030;-61
2023/09/26 04:50:51;;;;;;;10.55;6.93;;;;;;;14.41;82.21;101966.22;5115737;27;20024;-60
2023/09/26 04:53:16;;;;;;;15.50;6.50;;;;;;;14.42;81.56;101953.81;5115989;28;20034;-60
2023/09/26 04:55:42;;;;;;;16.80;7.45;;;;;;;14.42;82.21;101961.78;5114725;28;20016;-61
2023/09/26 04:58:08;;;;;;;11.45;7.38;;;;;;;14.42;83.27;101954.69;5115646;28;20027;-60
2023/09/26 05:00:34;;;;;;;12.48;7.32;;;;;;;14.42;83.67;101951.16;5115333;28;20059;-61
2023/09/26 05:03:00;;;;;;;18.60;7.95;;;;;;;14.42;83.68;101948.50;5115506;27;20557;-61
2023/09/26 05:05:25;;;;;;;12.57;7.60;;;;;;;14.41;83.66;101952.03;5115751;28;20031;-60
2023/09/26 05:07:50;;;;;;;10.35;7.07;;;;;;;14.45;83.55;101953.84;5115363;28;20491;-60
2023/09/26 05:10:17;;;;;;;14.63;7.70;;;;;;;14.42;84.50;101952.03;5115198;28;20111;-61
2023/09/26 05:12:42;;;;;;;10.68;7.50;;;;;;;14.46;84.38;101958.28;5114240;28;20020;-61
2023/09/26 05:15:15;;;;;;;15.13;8.13;;;;;;;14.41;84.98;101962.66;5115567;28;20024;-61
2023/09/26 05:17:51;;;;;;;16.77;8.35;;;;;;;14.42;85.15;101962.69;5115301;28;20019;-60
2023/09/26 05:20:18;;;;;;;15.60;7.50;;;;;;;14.40;85.23;101953.81;5114831;28;20480;-61
2023/09/26 05:22:45;;;;;;;12.75;7.80;;;;;;;14.37;85.47;101950.19;5114398;28;20032;-62
2023/09/26 05:25:13;;;;;;;12.88;7.93;;;;;;;14.37;85.55;101960.84;5114568;28;20031;-62
2023/09/26 05:27:39;;;;;;;13.65;7.72;;;;;;;14.34;85.51;101959.03;5114842;28;20132;-61
2023/09/26 05:30:06;;;;;;;16.98;7.90;;;;;;;14.33;85.40;101962.56;5114482;28;20417;-60
2023/09/26 05:32:32;;;;;;;13.05;8.25;;;;;;;14.31;85.52;101959.00;5114109;28;20563;-61
2023/09/26 05:34:58;;;;;;;15.57;7.43;;;;;;;14.38;85.16;101955.53;5114731;28;20045;-62
2023/09/26 05:37:23;;;;;;;12.07;7.45;;;;;;;14.41;85.32;101957.34;5114160;28;20039;-60
2023/09/26 05:39:48;;;;;;;11.98;6.57;;;;;;;14.46;85.37;101956.53;5114145;28;20027;-61
2023/09/26 05:42:14;;;;;;;13.48;7.35;;;;;;;14.44;85.45;101947.66;5114457;28;20024;-61
2023/09/26 05:44:40;;;;;;;15.60;7.15;;;;;;;14.45;85.15;101959.19;5114460;28;20384;-60
2023/09/26 05:47:05;;;;;;;13.52;7.05;;;;;;;14.44;85.20;101968.94;5114521;28;20100;-61
2023/09/26 05:49:31;;;;;;;11.10;7.30;;;;;;;14.45;85.58;101962.72;5114409;28;20111;-61
2023/09/26 05:51:56;;;;;;;10.30;7.07;;;;;;;14.47;85.84;101968.97;5114119;28;20473;-61
2023/09/26 05:54:22;;;;;;;10.93;7.28;;;;;;;14.50;85.79;101971.69;5114171;28;20238;-61
2023/09/26 05:56:47;;;;;;;14.40;7.68;;;;;;;14.64;85.75;101965.63;5114003;28;20039;-60
2023/09/26 05:59:13;;;;;;;10.05;7.55;;;;;;;14.74;85.18;101970.22;5113788;28;20377;-61
2023/09/26 06:01:38;;;;;;;13.10;7.13;;;;;;;14.80;84.69;101972.03;5112390;28;20016;-61
2023/09/26 06:04:04;;;;;;;10.65;6.63;;;;;;;14.93;84.66;101977.50;5113770;28;20106;-61
2023/09/26 06:06:32;;;;;;;14.13;6.88;;;;;;;15.03;84.30;101968.75;5113700;28;20031;-61
2023/09/26 06:08:58;;;;;;;16.95;9.48;;;;;;;15.11;83.70;101976.81;5113659;28;20152;-61
2023/09/26 06:11:23;;;;;;;14.13;9.15;;;;;;;15.16;83.60;101977.78;5113753;28;20114;-60
2023/09/26 06:13:48;;;;;;;21.77;7.93;;;;;;;15.18;83.65;101973.34;5113931;28;20384;-60
2023/09/26 06:16:14;;;;;;;9.43;5.93;;;;;;;15.29;83.46;101968.13;5113579;28;20028;-61
2023/09/26 06:18:39;;;;;;;14.10;7.13;;;;;;;15.41;83.66;101970.88;5113847;28;20024;-60
2023/09/26 06:21:06;;;;;;;14.48;7.35;;;;;;;15.52;83.00;101968.31;5113416;28;20026;-60
2023/09/26 06:23:32;;;;;;;14.13;7.10;;;;;;;15.60;82.55;101960.41;5113557;28;20032;-60
2023/09/26 06:25:59;;;;;;;9.40;6.88;;;;;;;15.66;82.82;101961.34;5113607;28;20404;-60
2023/09/26 06:28:25;;;;;;;12.38;6.75;;;;;;;15.66;82.72;101958.69;5113414;28;20023;-61
2023/09/26 06:30:50;;;;;;;17.92;7.32;;;;;;;15.65;83.33;101959.56;5112920;28;20124;-60
2023/09/26 06:33:16;;;;;;;12.52;6.68;;;;;;;15.58;83.60;101952.38;5113731;28;20028;-61
2023/09/26 06:35:42;;;;;;;15.13;6.95;;;;;;;15.60;83.65;101950.63;5113278;28;20023;-60
2023/09/26 06:38:07;;;;;;;22.27;7.30;;;;;;;15.56;84.18;101942.59;5113033;28;20024;-61
2023/09/26 06:40:33;;;;;;;12.80;7.18;;;;;;;15.55;84.05;101946.16;5113444;28;20431;-62
2023/09/26 06:43:00;;;;;;;21.33;7.28;;;;;;;15.48;84.37;101950.53;5113549;28;20034;-61
2023/09/26 06:45:27;;;;;;;9.80;6.95;;;;;;;15.44;84.79;101956.72;5113343;28;20028;-61
2023/09/26 06:47:53;;;;;;;10.02;6.72;;;;;;;15.43;85.10;101961.16;5113042;28;20028;-60
2023/09/26 06:50:18;;;;;;;14.70;6.85;;;;;;;15.38;85.41;101960.22;5113170;28;20039;-61
2023/09/26 06:52:44;;;;;;;16.90;6.80;;;;;;;15.27;86.28;101957.44;5112903;28;20031;-61
2023/09/26 06:55:10;;;;;;;11.88;7.03;;;;;;;15.19;86.79;101967.13;5113169;28;20051;-62
2023/09/26 06:57:36;;;;;;;10.88;7.05;;;;;;;15.28;87.02;101975.19;5112962;28;20403;-61
2023/09/26 07:00:21;;;;;;;13.40;7.50;;;;;;;15.29;86.84;101965.47;5113299;28;20027;-60
2023/09/26 07:02:47;;;;;;;14.35;7.28;;;;;;;15.41;86.40;101970.00;5112931;28;20075;-61
2023/09/26 07:05:13;;;;;;;14.20;6.97;;;;;;;15.42;86.28;101969.13;5112922;28;20486;-61
2023/09/26 07:07:38;;;;;;;16.55;7.78;;;;;;;15.53;86.32;101972.75;5113048;28;20019;-60
2023/09/26 07:10:05;;;;;;;11.20;7.40;;;;;;;15.65;85.75;101970.25;5111709;28;20034;-61
2023/09/26 07:12:30;;;;;;;11.68;7.13;;;;;;;15.66;85.46;101972.00;5112790;28;20055;-61
2023/09/26 07:14:56;;;;;;;12.15;7.65;;;;;;;15.71;86.42;101961.38;5112843;28;20051;-61
2023/09/26 07:17:22;;;;;;;10.93;7.30;;;;;;;15.77;86.59;101966.78;5112839;28;20036;-61
2023/09/26 07:19:50;;;;;;;11.40;6.90;;;;;;;15.82;85.71;101973.03;5112926;28;20035;-60
2023/09/26 07:22:16;;;;;;;8.95;7.07;;;;;;;15.92;85.58;101965.97;5112948;28;20055;-61
2023/09/26 07:24:41;;;;;;;11.02;7.32;;;;;;;15.99;85.72;101965.16;5112712;28;20428;-61
2023/09/26 07:27:07;;;;;;;10.20;6.82;;;;;;;16.14;85.12;101957.22;5112777;28;20034;-62
2023/09/26 07:29:32;;;;;;;17.60;7.47;;;;;;;16.25;84.87;101965.28;5112984;28;20034;-62
2023/09/26 07:31:58;;;;;;;9.98;6.60;;;;;;;16.43;84.50;101962.72;5111323;28;20573;-61
2023/09/26 07:34:24;;;;;;;11.02;7.32;;;;;;;16.58;83.82;101961.00;5112764;28;20394;-62
2023/09/26 07:36:49;;;;;;;10.85;6.72;;;;;;;16.62;83.30;101965.47;5116735;28;20032;-61
2023/09/26 07:39:15;;;;;;;11.30;7.13;;;;;;;16.73;83.13;101964.63;5116668;28;20023;-61
2023/09/26 07:41:40;;;;;;;14.75;7.80;;;;;;;16.87;84.02;101967.34;5116837;28;20028;-61
2023/09/26 07:44:06;;;;;;;14.05;7.07;;;;;;;17.08;82.69;101963.84;5116715;28;20504;-61
2023/09/26 07:46:31;;;;;;;11.85;6.82;;;;;;;17.22;81.93;101966.56;5116631;28;20036;-60
2023/09/26 07:48:57;;;;;;;9.93;6.80;;;;;;;17.32;80.72;101962.09;5116519;28;20051;-61
2023/09/26 07:51:22;;;;;;;12.32;6.72;;;;;;;17.48;80.78;101956.75;5116456;28;20027;-61
2023/09/26 07:53:47;;;;;;;12.10;7.22;;;;;;;17.66;80.13;101963.88;5116430;28;20024;-61
2023/09/26 07:56:13;;;;;;;11.30;6.70;;;;;;;17.85;78.83;101969.25;5116164;28;20400;-60
2023/09/26 07:58:39;;;;;;;9.95;7.03;;;;;;;17.86;79.46;101963.00;5116253;28;20028;-61
2023/09/26 08:01:08;;;;;;;10.43;6.85;;;;;;;17.86;78.23;101965.66;5115992;28;20022;-61
2023/09/26 08:03:35;;;;;;;13.00;6.70;;;;;;;17.88;78.45;101962.09;5116635;28;20042;-61
2023/09/26 08:06:02;;;;;;;13.15;6.88;;;;;;;17.92;79.61;101961.22;5116008;28;20381;-61
2023/09/26 08:08:30;;;;;;;12.23;6.55;;;;;;;17.83;79.39;101963.00;5116257;28;20101;-60
2023/09/26 08:10:56;;;;;;;9.00;6.95;;;;;;;17.59;78.73;101966.56;5116038;28;20023;-60
2023/09/26 08:13:22;;;;;;;9.93;7.15;;;;;;;17.41;80.65;101962.09;5115769;28;20469;-60
2023/09/26 08:15:48;;;;;;;16.02;7.15;;;;;;;17.48;81.16;101955.88;5114681;28;20034;-60
2023/09/26 08:18:14;;;;;;;10.80;7.00;;;;;;;17.58;81.23;101954.97;5114175;28;20043;-61
2023/09/26 08:20:39;;;;;;;11.35;7.15;;;;;;;17.70;81.30;101940.72;5116124;28;20076;-61
2023/09/26 08:23:05;;;;;;;12.98;7.00;;;;;;;17.79;81.24;101938.06;5115683;28;20389;-61
2023/09/26 08:25:32;;;;;;;10.20;6.82;;;;;;;17.94;79.60;101943.41;5116154;28;20059;-61
2023/09/26 08:27:57;;;;;;;9.05;6.97;;;;;;;18.15;80.16;101947.78;5115603;28;20070;-61
2023/09/26 08:30:24;;;;;;;10.07;7.07;;;;;;;18.29;79.64;101953.09;5115631;28;20102;-60
2023/09/26 08:32:49;;;;;;;12.48;6.82;;;;;;;18.46;78.75;101953.94;5113946;28;20050;-60
2023/09/26 08:35:15;;;;;;;10.27;6.65;;;;;;;18.67;77.47;101939.56;5115958;28;20102;-62
2023/09/26 08:37:40;;;;;;;11.30;7.00;;;;;;;18.80;75.84;101939.50;5115501;28;20024;-62
2023/09/26 08:40:13;;;;;;;11.23;7.35;;;;;;;18.89;77.66;101936.78;5115569;28;20055;-61
2023/09/26 08:42:45;;;;;;;9.77;7.00;;;;;;;18.99;74.83;101950.09;5115629;28;20024;-60
2023/09/26 08:45:11;;;;;;;10.82;7.13;;;;;;;19.20;74.51;101954.44;5115753;28;20032;-62
2023/09/26 08:47:42;;;;;;;10.93;6.97;;;;;;;19.43;73.00;101951.56;5115683;28;20047;-61
2023/09/26 08:50:07;;;;;;;16.85;6.78;;;;;;;19.54;71.79;101945.22;5115465;28;20039;-62
2023/09/26 08:52:34;;;;;;;8.57;6.70;;;;;;;19.51;69.97;101940.78;5115499;28;20092;-61
2023/09/26 08:55:00;;;;;;;11.02;6.97;;;;;;;19.62;70.60;101933.56;5115246;28;20028;-61
2023/09/26 08:57:25;;;;;;;11.35;6.82;;;;;;;20.08;69.86;101926.81;5115106;28;20115;-61
2023/09/26 08:59:54;;;;;;;11.95;6.43;;;;;;;20.30;68.05;101930.13;5115048;28;20028;-61
2023/09/26 09:02:19;;;;;;;7.78;5.63;;;;;;;20.62;67.43;101935.16;5115002;28;20023;-61
2023/09/26 09:04:45;;;;;;;8.93;6.05;;;;;;;20.80;65.86;101934.88;5114933;28;20023;-61
2023/09/26 09:07:11;;;;;;;9.75;6.50;;;;;;;20.88;65.54;101934.78;5114914;28;20020;-62
2023/09/26 09:09:45;;;;;;;9.82;6.10;;;;;;;21.07;65.96;101930.91;5115017;28;20488;-61
2023/09/26 09:12:24;;;;;;;9.38;5.85;;;;;;;21.37;65.67;101923.28;5115072;28;20457;-61
2023/09/26 09:14:50;;;;;;;9.25;5.30;;;;;;;21.46;61.95;101924.03;5115151;28;20027;-61
2023/09/26 09:17:15;;;;;;;9.85;5.53;;;;;;;21.77;62.18;101923.47;5114948;28;20362;-61
2023/09/26 09:19:47;;;;;;;10.20;5.65;;;;;;;21.92;61.86;101930.34;5114798;28;20023;-61
2023/09/26 09:22:18;;;;;;;8.45;5.28;;;;;;;22.35;61.94;101929.53;5114749;28;20031;-61
2023/09/26 09:24:50;;;;;;;10.00;5.75;;;;;;;22.50;58.56;101932.81;5115088;28;20110;-61
2023/09/26 09:27:16;;;;;;;12.10;5.53;;;;;;;22.74;58.73;101936.78;5114634;28;20035;-61
2023/09/26 09:29:41;;;;;;;10.05;5.53;;;;;;;22.84;58.40;101937.44;5114706;28;20092;-62
2023/09/26 09:32:07;;;;;;;10.43;5.57;;;;;;;22.78;58.93;101942.06;5114048;28;20058;-61
2023/09/26 09:34:34;;;;;;;11.40;5.25;;;;;;;23.01;58.12;101933.50;5113186;28;20495;-62
2023/09/26 09:37:00;;;;;;;9.68;5.20;;;;;;;23.31;58.44;101931.88;5113182;28;20174;-62
2023/09/26 09:39:26;;;;;;;13.32;6.05;;;;;;;23.59;56.92;101923.94;5114197;27;20061;-61
2023/09/26 09:41:57;;;;;;;13.38;5.55;;;;;;;23.70;56.47;101917.38;5114115;28;20077;-61
2023/09/26 09:44:23;;;;;;;11.27;6.00;;;;;;;23.79;56.50;101912.66;5114229;28;20023;-62
2023/09/26 09:46:55;;;;;;;10.20;5.43;;;;;;;23.78;57.26;101916.31;5114475;28;20023;-62
2023/09/26 09:49:22;;;;;;;10.45;5.88;;;;;;;23.81;55.64;101906.31;5114024;28;20409;-61
2023/09/26 09:51:49;;;;;;;8.23;5.30;;;;;;;23.81;56.26;101902.69;5114072;28;20034;-62
2023/09/26 09:54:17;;;;;;;7.97;5.10;;;;;;;23.88;54.89;101886.31;5114258;28;20050;-62
2023/09/26 09:56:45;;;;;;;8.07;4.90;;;;;;;23.91;56.84;101898.84;5114357;28;20392;-62
2023/09/26 09:59:15;;;;;;;8.63;4.80;;;;;;;23.97;56.29;101896.84;5113336;27;20035;-61
2023/09/26 10:01:45;;;;;;;8.52;4.90;;;;;;;23.97;54.44;101899.53;5113667;28;20028;-62
2023/09/26 10:04:16;;;;;;;7.00;4.50;;;;;;;24.04;54.98;101894.88;5114011;28;20027;-61
2023/09/26 10:06:42;;;;;;;10.88;5.10;;;;;;;23.92;55.77;101900.59;5113899;28;20059;-62
2023/09/26 10:09:09;;;;;;;9.13;4.72;;;;;;;23.89;55.53;101889.88;5113642;28;20027;-61
2023/09/26 10:11:35;;;;;;;9.98;4.43;;;;;;;23.78;56.43;101897.41;5113918;28;20035;-62
2023/09/26 10:14:05;;;;;;;8.93;4.70;;;;;;;23.56;55.80;101897.97;5113556;28;20062;-61
2023/09/26 10:16:31;;;;;;;9.30;4.75;;;;;;;23.40;56.34;101907.38;5113815;28;20035;-61
2023/09/26 10:18:59;;;;;;;8.88;4.80;;;;;;;23.40;55.69;101901.97;5113798;28;20024;-62
2023/09/26 10:21:27;;;;;;;9.30;4.88;;;;;;;23.38;56.05;101902.03;5113292;28;20076;-61
2023/09/26 10:24:15;;;;;;;9.30;4.32;;;;;;;23.57;57.80;101896.13;5113718;28;20430;-61
2023/09/26 10:26:49;;;;;;;7.45;4.30;;;;;;;23.60;55.40;101898.75;5113385;28;20464;-61
2023/09/26 10:29:14;;;;;;;7.25;4.22;;;;;;;23.66;55.19;101902.19;5112164;28;20027;-62
2023/09/26 10:31:45;;;;;;;8.05;4.22;;;;;;;23.65;54.82;101897.75;5112925;28;20044;-62
2023/09/26 10:34:11;;;;;;;7.25;3.90;;;;;;;23.58;54.74;101895.22;5113766;28;20032;-62
2023/09/26 10:36:40;;;;;;;10.20;4.10;;;;;;;23.66;55.00;101894.09;5113228;28;20565;-61
2023/09/26 10:39:05;;;;;;;12.73;4.07;;;;;;;23.80;54.93;101884.75;5113222;28;20417;-62
2023/09/26 10:41:32;;;;;;;9.65;4.70;;;;;;;23.91;53.89;101893.44;5113347;28;20080;-61
2023/09/26 10:43:58;;;;;;;8.98;4.60;;;;;;;23.93;52.78;101889.75;5113531;28;20049;-61
2023/09/26 10:46:23;;;;;;;8.50;4.82;;;;;;;23.86;52.77;101885.47;5113426;28;20536;-62
2023/09/26 10:48:49;;;;;;;11.07;4.80;;;;;;;23.91;54.24;101871.84;5113434;28;20480;-61
2023/09/26 10:51:17;;;;;;;8.85;4.43;;;;;;;24.12;53.42;101876.63;5111645;28;20020;-61
2023/09/26 10:53:44;;;;;;;7.88;4.03;;;;;;;23.96;54.57;101883.38;5113038;28;20114;-62
2023/09/26 10:56:10;;;;;;;11.10;4.20;;;;;;;23.99;53.59;101886.00;5113057;28;20089;-62
2023/09/26 10:58:36;;;;;;;9.68;4.47;;;;;;;24.10;53.25;101888.38;5113147;28;20027;-61
2023/09/26 11:01:02;;;;;;;7.82;4.20;;;;;;;24.31;53.11;101884.19;5112742;28;20487;-62
2023/09/26 11:03:30;;;;;;;7.78;4.10;;;;;;;24.39;53.25;101868.66;5113077;28;20039;-62
2023/09/26 11:05:56;;;;;;;8.00;4.13;;;;;;;24.58;51.80;101868.97;5112973;28;20031;-62
2023/09/26 11:08:24;;;;;;;10.43;4.45;;;;;;;24.73;53.52;101872.06;5112757;28;20027;-62
2023/09/26 11:10:50;;;;;;;7.50;4.18;;;;;;;24.87;51.12;101881.56;5115408;28;20039;-61
2023/09/26 11:13:21;;;;;;;9.10;4.03;;;;;;;25.13;49.95;101881.59;5117324;28;20019;-63
2023/09/26 11:15:51;;;;;;;10.00;4.57;;;;;;;25.05;51.12;101888.19;5117530;28;20024;-61
2023/09/26 11:18:17;;;;;;;6.90;4.45;;;;;;;25.00;49.90;101891.03;5117417;28;20055;-61